Accueil
METAR-TAF:

METAR-TAF

Aéroports :

Shizuhama, Japon

latitude: 34-49N, longitude: 138-18E, altitude: 7 m

Observation

Le bulletin a été fait il y a 44 minutes, à 10:02 UTC
Vent 12 kt de ouest/sud-ouest
Température 28°C
Humidité 84%
Pression 1009 hPa
Visibilité 10 km ou plus
Quelques nuages à une hauteur de 1500 ft
Nuages fragmentés à une hauteur de 2000 ft
Quelques nuages à une hauteur de 3500 ft, Cumulonimbus.
Nuages fragmentés
orage

METAR: RJNY 181002Z 25012KT 9999 TS FEW015 BKN020 FEW035CB BKN/// 28/25 Q1009 RMK 2CU015 5CU020 1CB035 A2981 FBL TS 30KM NW MOV E

Heure: 19:46 (10:46 UTC)


TAF: absent

Observations et prévisions météorologiques de plus de 4000 aéroports (messages METAR et TAF).

Les stations disponibles sont représentées par des disques jaunes et rouges sur la carte.

Passer la souris dessus pour voir le nom de la station.

Cliquer dessus pour voir les observations et prévisions météorologiques.

Pour changer de carte: cliquez sur les boutons verts avec une croix noire pour zoomer, sur le bouton vert avec un tiret pour effectuer un zoom arrière, ou sur les flèches vertes pour les cartes adjacentes.


METAR-TAF: